Levy, New Mexico
Current Conditions -  °F | °C
As of 11:53 PM on Tuesday 27 Jan 2015 (Local Time) from KLVS Reporting Station
Clear Clear  
Wind Chill: 39°   Ceiling: Unl
Heat Index: 42°   Visibility: 10mi
Dew Point: 28°   Wind: 5mph
Humidity: 58%   Direction: 270°W
Pressure: 30.17"   Gusts: NA
Location:  35.9933°N, 104.615°W
Report Text: KLVS 280653Z AUTO 27004KT 10SM CLR 06/M02 A3017 RMK AO2 SLP148 T00561022 401781017
Loading
Personal Weather Stations






























Interactive Weather Map New forecast layout! Learn more

10-Day Weather Forecast

Advertisements
Track Severe Weather on mobile